createdAt,value
2018-08-07T00:01:07.125Z,4.83
2018-08-07T00:03:34.460Z,4.17
2018-08-07T00:06:01.818Z,4.20
2018-08-07T00:08:29.178Z,4.90
2018-08-07T00:10:56.530Z,5.43
2018-08-07T00:13:23.902Z,4.50
2018-08-07T00:15:51.250Z,4.97
2018-08-07T00:18:18.581Z,4.97
2018-08-07T00:20:45.969Z,4.70
2018-08-07T00:23:13.329Z,4.43
2018-08-07T00:25:40.650Z,4.63
2018-08-07T00:28:08.028Z,7.03
2018-08-07T00:30:35.409Z,5.43
2018-08-07T00:33:02.843Z,4.60
2018-08-07T00:35:30.195Z,5.53
2018-08-07T00:37:57.654Z,5.43
2018-08-07T00:40:24.874Z,4.33
2018-08-07T00:42:52.217Z,5.63
2018-08-07T00:45:19.753Z,5.60
2018-08-07T00:47:47.211Z,4.87
2018-08-07T00:50:16.174Z,7.03
2018-08-07T00:52:44.536Z,6.53
2018-08-07T00:55:11.921Z,5.00
2018-08-07T00:57:39.285Z,5.17
2018-08-07T01:00:09.157Z,9.57
2018-08-07T01:02:36.896Z,5.30
2018-08-07T01:05:04.456Z,5.77
2018-08-07T01:07:31.893Z,4.03
2018-08-07T01:09:59.220Z,12.03
2018-08-07T01:12:26.614Z,6.00
2018-08-07T01:14:53.913Z,5.87
2018-08-07T01:17:21.239Z,8.70
2018-08-07T01:19:48.502Z,4.73
2018-08-07T01:22:15.806Z,6.50
2018-08-07T01:24:43.105Z,6.07
2018-08-07T01:27:10.397Z,4.80
2018-08-07T01:29:37.716Z,7.43
2018-08-07T01:32:05.364Z,5.20
2018-08-07T01:34:32.640Z,5.03
2018-08-07T01:36:59.985Z,5.03
2018-08-07T01:39:27.313Z,9.97
2018-08-07T01:41:54.588Z,6.70
2018-08-07T01:44:21.908Z,5.67
2018-08-07T01:46:49.213Z,6.67
2018-08-07T01:49:16.529Z,8.03
2018-08-07T01:51:43.816Z,5.30
2018-08-07T01:54:11.136Z,6.53
2018-08-07T01:56:38.433Z,7.30
2018-08-07T01:59:05.752Z,6.20
2018-08-07T02:01:33.128Z,5.50
2018-08-07T02:04:00.424Z,6.13
2018-08-07T02:06:27.829Z,7.37
2018-08-07T02:08:55.157Z,5.10
2018-08-07T02:11:22.443Z,5.90
2018-08-07T02:13:49.861Z,6.70
2018-08-07T02:16:17.295Z,6.03
2018-08-07T02:18:44.607Z,7.47
2018-08-07T02:21:11.925Z,9.10
2018-08-07T02:23:39.241Z,8.00
2018-08-07T02:26:06.571Z,5.30
2018-08-07T02:28:33.989Z,6.37
2018-08-07T02:31:01.353Z,6.13
2018-08-07T02:33:28.644Z,6.33
2018-08-07T02:35:55.953Z,6.50
2018-08-07T02:38:23.249Z,6.83
2018-08-07T02:40:50.646Z,6.27
2018-08-07T02:43:17.962Z,7.60
2018-08-07T02:45:45.288Z,5.83
2018-08-07T02:48:12.577Z,7.00
2018-08-07T02:50:39.882Z,7.37
2018-08-07T02:53:07.200Z,6.20
2018-08-07T02:55:34.494Z,6.30
2018-08-07T02:58:01.917Z,6.50
2018-08-07T03:00:33.845Z,6.27
2018-08-07T03:03:01.155Z,6.47
2018-08-07T03:05:28.487Z,6.57
2018-08-07T03:07:55.834Z,8.17
2018-08-07T03:10:23.125Z,6.20
2018-08-07T03:12:50.438Z,6.60
2018-08-07T03:15:19.024Z,9.50
2018-08-07T03:17:47.081Z,6.60
2018-08-07T03:20:14.578Z,5.67
2018-08-07T03:22:41.919Z,6.90
2018-08-07T03:25:10.913Z,6.80
2018-08-07T03:27:38.217Z,6.27
2018-08-07T03:30:07.783Z,13.73
2018-08-07T03:32:35.167Z,9.60
2018-08-07T03:35:02.462Z,7.30
2018-08-07T03:37:29.781Z,6.90
2018-08-07T03:39:57.135Z,11.10
2018-08-07T03:42:24.528Z,8.00
2018-08-07T03:44:51.803Z,6.30
2018-08-07T03:47:19.100Z,9.13
2018-08-07T03:49:46.397Z,6.17
2018-08-07T03:52:13.680Z,6.43
2018-08-07T03:54:40.947Z,6.20
2018-08-07T03:57:08.236Z,6.60
2018-08-07T03:59:35.562Z,7.80
2018-08-07T04:02:02.992Z,6.80
2018-08-07T04:04:30.331Z,7.73
2018-08-07T04:06:57.627Z,6.10
2018-08-07T04:09:24.925Z,7.27
2018-08-07T04:11:52.261Z,7.20
2018-08-07T04:14:19.537Z,6.90
2018-08-07T04:16:55.404Z,10.10
2018-08-07T04:19:24.276Z,7.57
2018-08-07T04:21:51.617Z,6.77
2018-08-07T04:24:18.932Z,7.43
2018-08-07T04:26:46.521Z,9.87
2018-08-07T04:29:13.796Z,6.93
2018-08-07T04:31:41.182Z,6.47
2018-08-07T04:34:08.793Z,6.40
2018-08-07T04:36:36.106Z,7.10
2018-08-07T04:39:06.210Z,7.50
2018-08-07T04:41:33.492Z,7.20
2018-08-07T04:44:00.840Z,11.60
2018-08-07T04:46:28.122Z,13.03
2018-08-07T04:48:55.453Z,8.23
2018-08-07T04:51:22.735Z,5.90
2018-08-07T04:53:50.045Z,7.10
2018-08-07T04:56:17.326Z,6.90
2018-08-07T04:58:44.677Z,9.77
2018-08-07T05:01:11.964Z,7.10
2018-08-07T05:03:39.257Z,7.10
2018-08-07T05:06:06.577Z,6.60
2018-08-07T05:08:33.909Z,6.33
2018-08-07T05:11:01.223Z,5.30
2018-08-07T05:13:28.517Z,5.50
2018-08-07T05:15:55.818Z,6.13
2018-08-07T05:18:23.128Z,4.93
2018-08-07T05:20:50.460Z,5.00
2018-08-07T05:23:17.748Z,6.50
2018-08-07T05:25:45.033Z,8.43
2018-08-07T05:28:12.341Z,11.00
2018-08-07T05:30:39.689Z,10.27
2018-08-07T05:33:06.965Z,6.53
2018-08-07T05:35:34.313Z,6.10
2018-08-07T05:38:01.584Z,7.47
2018-08-07T05:40:28.899Z,6.83
2018-08-07T05:42:56.217Z,7.10
2018-08-07T05:45:23.548Z,7.73
2018-08-07T05:47:50.823Z,9.03
2018-08-07T05:50:18.217Z,7.57
2018-08-07T05:52:45.462Z,13.63
2018-08-07T05:55:12.836Z,8.23
2018-08-07T05:57:40.135Z,15.80
2018-08-07T06:00:11.466Z,7.60
2018-08-07T06:02:38.777Z,6.70
2018-08-07T06:05:06.300Z,7.00
2018-08-07T06:07:33.564Z,6.80
2018-08-07T06:10:00.870Z,6.83
2018-08-07T06:12:28.143Z,7.77
2018-08-07T06:14:55.429Z,5.80
2018-08-07T06:17:22.714Z,9.03
2018-08-07T06:19:50.049Z,5.23
2018-08-07T06:22:17.373Z,8.03
2018-08-07T06:24:44.705Z,7.47
2018-08-07T06:27:12.018Z,12.17
2018-08-07T06:29:39.375Z,11.93
2018-08-07T06:32:06.750Z,6.70
2018-08-07T06:34:34.045Z,5.40
2018-08-07T06:37:01.369Z,5.70
2018-08-07T06:39:28.667Z,6.97
2018-08-07T06:41:55.982Z,5.50
2018-08-07T06:44:23.302Z,7.37
2018-08-07T06:46:50.625Z,10.00
2018-08-07T06:49:17.974Z,6.83
2018-08-07T06:51:45.286Z,9.50
2018-08-07T06:54:12.594Z,7.77
2018-08-07T06:56:39.915Z,10.27
2018-08-07T06:59:07.189Z,13.23
2018-08-07T07:01:34.498Z,9.00
2018-08-07T07:04:01.779Z,19.07
2018-08-07T07:06:29.068Z,17.07
2018-08-07T07:08:56.397Z,8.60
2018-08-07T07:11:23.679Z,9.80
2018-08-07T07:13:50.973Z,9.63
2018-08-07T07:16:18.274Z,8.60
2018-08-07T07:18:45.598Z,7.30
2018-08-07T07:21:13.079Z,8.17
2018-08-07T07:23:40.385Z,8.90
2018-08-07T07:26:07.706Z,9.00
2018-08-07T07:28:35.018Z,6.40
2018-08-07T07:31:02.349Z,11.30
2018-08-07T07:33:29.655Z,10.80
2018-08-07T07:35:56.936Z,6.27
2018-08-07T07:38:24.240Z,12.00
2018-08-07T07:40:51.542Z,6.87
2018-08-07T07:43:18.866Z,11.60
2018-08-07T07:45:46.197Z,6.70
2018-08-07T07:48:13.520Z,14.07
2018-08-07T07:50:40.838Z,9.80
2018-08-07T07:53:08.196Z,8.10
2018-08-07T07:55:35.473Z,11.17
2018-08-07T07:58:02.801Z,13.53
2018-08-07T08:00:30.101Z,8.43
2018-08-07T08:02:57.420Z,8.50
2018-08-07T08:05:25.408Z,9.50
2018-08-07T08:07:53.186Z,9.87
2018-08-07T08:10:20.502Z,9.60
2018-08-07T08:12:47.794Z,12.90
2018-08-07T08:15:16.701Z,11.07
2018-08-07T08:17:44.994Z,11.43
2018-08-07T08:20:14.045Z,14.23
2018-08-07T08:22:41.523Z,13.07
2018-08-07T08:25:09.977Z,12.40
2018-08-07T08:27:37.277Z,11.30
2018-08-07T08:30:09.412Z,11.40
2018-08-07T08:32:36.840Z,13.50
2018-08-07T08:35:05.803Z,12.80
2018-08-07T08:37:33.065Z,11.13
2018-08-07T08:40:00.382Z,13.47
2018-08-07T08:42:27.700Z,13.30
2018-08-07T08:44:55.016Z,12.03
2018-08-07T08:47:22.335Z,10.83
2018-08-07T08:49:49.635Z,12.43
2018-08-07T08:52:16.949Z,12.60
2018-08-07T08:54:44.273Z,12.10
2018-08-07T08:57:11.580Z,11.30
2018-08-07T08:59:38.897Z,11.70
2018-08-07T09:02:06.597Z,11.23
2018-08-07T09:04:33.960Z,11.40
2018-08-07T09:07:01.256Z,10.50
2018-08-07T09:09:28.561Z,11.57
2018-08-07T09:11:55.906Z,11.10
2018-08-07T09:14:23.265Z,13.90
2018-08-07T09:16:50.582Z,10.73
2018-08-07T09:19:17.977Z,10.93
2018-08-07T09:21:45.273Z,12.40
2018-08-07T09:24:12.584Z,13.20
2018-08-07T09:26:39.869Z,10.90
2018-08-07T09:29:07.189Z,11.50
2018-08-07T09:31:34.846Z,14.00
2018-08-07T09:34:02.197Z,10.83
2018-08-07T09:36:29.517Z,12.73
2018-08-07T09:38:56.849Z,11.37
2018-08-07T09:41:24.183Z,11.83
2018-08-07T09:43:51.449Z,11.83
2018-08-07T09:46:18.797Z,13.20
2018-08-07T09:48:46.133Z,11.47
2018-08-07T09:51:13.467Z,12.07
2018-08-07T09:53:40.793Z,11.73
2018-08-07T09:56:08.161Z,11.13
2018-08-07T09:58:35.458Z,17.00
2018-08-07T10:01:42.498Z,10.90
2018-08-07T10:04:09.820Z,10.93
2018-08-07T10:06:37.108Z,11.43
2018-08-07T10:09:07.233Z,12.10
2018-08-07T10:11:34.585Z,14.77
2018-08-07T10:14:01.864Z,12.13
2018-08-07T10:16:29.161Z,11.67
2018-08-07T10:18:56.447Z,11.27
2018-08-07T10:21:23.753Z,10.57
2018-08-07T10:23:51.040Z,10.93
2018-08-07T10:26:18.544Z,11.33
2018-08-07T10:28:45.873Z,12.00
2018-08-07T10:31:13.178Z,13.27
2018-08-07T10:33:40.485Z,13.60
2018-08-07T10:36:07.796Z,11.40
2018-08-07T10:38:35.117Z,13.10
2018-08-07T10:41:02.600Z,10.73
2018-08-07T10:43:29.922Z,10.53
2018-08-07T10:45:57.160Z,9.70
2018-08-07T10:48:24.480Z,10.03
2018-08-07T10:50:51.863Z,10.53
2018-08-07T10:53:19.138Z,8.70
2018-08-07T10:55:46.493Z,9.70
2018-08-07T10:58:13.849Z,9.83
2018-08-07T11:00:41.129Z,10.70
2018-08-07T11:03:08.429Z,9.03
2018-08-07T11:05:35.788Z,9.43
2018-08-07T11:08:03.242Z,11.23
2018-08-07T11:10:30.569Z,9.60
2018-08-07T11:12:57.880Z,10.53
2018-08-07T11:15:27.745Z,10.37
2018-08-07T11:17:55.903Z,9.70
2018-08-07T11:20:23.277Z,9.00
2018-08-07T11:22:51.663Z,10.80
2018-08-07T11:25:20.363Z,9.70
2018-08-07T11:27:47.640Z,10.10
2018-08-07T11:30:16.832Z,10.20
2018-08-07T11:32:44.633Z,12.20
2018-08-07T11:35:12.385Z,9.20
2018-08-07T11:37:39.849Z,7.33
2018-08-07T11:40:09.965Z,9.33
2018-08-07T11:42:37.300Z,8.13
2018-08-07T11:45:07.508Z,8.37
2018-08-07T11:47:34.856Z,7.60
2018-08-07T11:50:02.160Z,11.13
2018-08-07T11:52:29.444Z,7.60
2018-08-07T11:54:56.724Z,12.80
2018-08-07T11:57:24.037Z,8.93
2018-08-07T11:59:51.365Z,8.80
2018-08-07T12:02:18.750Z,9.00
2018-08-07T12:04:46.938Z,11.13
2018-08-07T12:07:14.259Z,11.30
2018-08-07T12:09:41.569Z,9.50
2018-08-07T12:12:08.888Z,9.50
2018-08-07T12:14:36.200Z,7.73
2018-08-07T12:17:03.480Z,9.07
2018-08-07T12:19:30.781Z,8.53
2018-08-07T12:21:58.063Z,9.03
2018-08-07T12:24:25.374Z,9.00
2018-08-07T12:26:52.688Z,9.00
2018-08-07T12:29:20.013Z,12.10
2018-08-07T12:31:47.360Z,10.03
2018-08-07T12:34:14.636Z,10.67
2018-08-07T12:36:41.917Z,11.40
2018-08-07T12:39:09.284Z,11.13
2018-08-07T12:41:36.690Z,16.03
2018-08-07T12:44:04.025Z,9.33
2018-08-07T12:46:31.340Z,10.63
2018-08-07T12:48:58.641Z,9.67
2018-08-07T12:51:26.037Z,9.40
2018-08-07T12:53:53.393Z,10.17
2018-08-07T12:56:20.764Z,9.90
2018-08-07T12:58:48.107Z,10.10
2018-08-07T13:01:15.402Z,12.50
2018-08-07T13:03:42.721Z,13.10
2018-08-07T13:06:10.045Z,12.23
2018-08-07T13:08:37.338Z,14.93
2018-08-07T13:11:04.673Z,9.70
2018-08-07T13:13:31.973Z,11.73
2018-08-07T13:15:59.376Z,13.17
2018-08-07T13:18:26.659Z,13.57
2018-08-07T13:20:53.977Z,11.20
2018-08-07T13:23:21.276Z,13.50
2018-08-07T13:25:48.656Z,11.33
2018-08-07T13:28:16.032Z,10.90
2018-08-07T13:30:43.400Z,14.10
2018-08-07T13:33:10.697Z,16.03
2018-08-07T13:35:37.992Z,12.70
2018-08-07T13:38:05.301Z,18.33
2018-08-07T13:40:32.590Z,12.43
2018-08-07T13:42:59.884Z,17.43
2018-08-07T13:45:27.313Z,14.10
2018-08-07T13:47:54.630Z,11.97
2018-08-07T13:50:23.268Z,11.90
2018-08-07T13:52:50.960Z,12.17
2018-08-07T13:55:19.111Z,11.37
2018-08-07T13:57:46.700Z,12.80
2018-08-07T14:00:16.745Z,14.50
2018-08-07T14:02:44.765Z,11.70
2018-08-07T14:05:12.249Z,12.70
2018-08-07T14:07:39.629Z,17.00
2018-08-07T14:10:08.364Z,12.03
2018-08-07T14:12:35.872Z,10.40
2018-08-07T14:15:03.173Z,24.73
2018-08-07T14:17:30.560Z,15.60
2018-08-07T14:19:57.845Z,13.20
2018-08-07T14:22:25.173Z,10.93
2018-08-07T14:24:52.489Z,10.77
2018-08-07T14:27:19.811Z,10.97
2018-08-07T14:29:47.161Z,10.00
2018-08-07T14:32:14.488Z,12.07
2018-08-07T14:34:41.821Z,8.87
2018-08-07T14:37:09.212Z,9.80
2018-08-07T14:39:36.525Z,9.23
2018-08-07T14:42:03.911Z,10.10
2018-08-07T14:44:31.253Z,11.40
2018-08-07T14:46:58.574Z,10.47
2018-08-07T14:49:25.920Z,11.00
2018-08-07T14:51:53.279Z,10.93
2018-08-07T14:54:20.633Z,10.33
2018-08-07T14:56:48.048Z,9.30
2018-08-07T14:59:15.388Z,10.17
2018-08-07T15:01:42.715Z,9.20
2018-08-07T15:04:10.022Z,14.27
2018-08-07T15:06:37.445Z,12.70
2018-08-07T15:09:07.429Z,9.60
2018-08-07T15:11:34.780Z,8.90
2018-08-07T15:14:02.191Z,9.33
2018-08-07T15:16:29.484Z,9.57
2018-08-07T15:18:56.778Z,8.50
2018-08-07T15:21:24.211Z,12.80
2018-08-07T15:23:51.555Z,12.40
2018-08-07T15:26:18.919Z,8.57
2018-08-07T15:28:46.257Z,7.57
2018-08-07T15:31:13.539Z,8.20
2018-08-07T15:33:40.934Z,8.07
2018-08-07T15:36:08.297Z,7.80
2018-08-07T15:38:35.596Z,8.70
2018-08-07T15:41:03.034Z,10.53
2018-08-07T15:43:30.351Z,8.13
2018-08-07T15:45:57.652Z,8.53
2018-08-07T15:48:24.980Z,9.47
2018-08-07T15:50:52.268Z,7.87
2018-08-07T15:53:19.616Z,8.53
2018-08-07T15:55:46.965Z,6.97
2018-08-07T15:58:14.286Z,7.10
2018-08-07T16:00:41.669Z,8.03
2018-08-07T16:03:09.024Z,7.87
2018-08-07T16:05:36.412Z,7.83
2018-08-07T16:08:03.743Z,10.90
2018-08-07T16:10:31.059Z,7.60
2018-08-07T16:12:58.530Z,6.53
2018-08-07T16:15:25.864Z,8.87
2018-08-07T16:17:53.599Z,8.70
2018-08-07T16:20:21.451Z,8.37
2018-08-07T16:22:48.781Z,7.17
2018-08-07T16:25:17.149Z,6.17
2018-08-07T16:27:45.658Z,8.33
2018-08-07T16:30:14.742Z,9.20
2018-08-07T16:32:41.972Z,10.90
2018-08-07T16:35:09.452Z,10.30
2018-08-07T16:37:36.871Z,6.93
2018-08-07T16:40:06.382Z,6.10
2018-08-07T16:42:34.637Z,6.90
2018-08-07T16:45:02.260Z,6.33
2018-08-07T16:47:29.613Z,6.70
2018-08-07T16:49:57.014Z,6.90
2018-08-07T16:52:24.308Z,6.10
2018-08-07T16:54:51.680Z,5.50
2018-08-07T16:57:19.071Z,6.70
2018-08-07T16:59:46.473Z,6.30
2018-08-07T17:02:13.781Z,5.37
2018-08-07T17:04:41.200Z,9.03
2018-08-07T17:07:08.561Z,12.03
2018-08-07T17:09:35.889Z,6.67
2018-08-07T17:12:03.281Z,6.57
2018-08-07T17:14:30.611Z,7.50
2018-08-07T17:16:58.003Z,8.63
2018-08-07T17:19:25.301Z,6.27
2018-08-07T17:21:52.667Z,6.23
2018-08-07T17:24:20.010Z,7.83
2018-08-07T17:26:47.430Z,6.57
2018-08-07T17:29:14.768Z,6.77
2018-08-07T17:31:42.193Z,8.53
2018-08-07T17:34:09.501Z,12.67
2018-08-07T17:36:36.904Z,23.97
2018-08-07T17:39:06.388Z,60.77
2018-08-07T17:41:33.717Z,73.73
2018-08-07T17:44:01.025Z,151.97
2018-08-07T17:46:28.354Z,185.93
2018-08-07T17:48:55.781Z,69.17
2018-08-07T17:51:23.224Z,36.87
2018-08-07T17:53:50.560Z,25.13
2018-08-07T17:56:17.945Z,23.90
2018-08-07T17:58:45.329Z,30.93
2018-08-07T18:01:12.789Z,24.03
2018-08-07T18:03:40.174Z,14.30
2018-08-07T18:06:08.000Z,13.97
2018-08-07T18:08:35.460Z,12.60
2018-08-07T18:11:02.933Z,12.63
2018-08-07T18:13:30.296Z,140.63
2018-08-07T18:15:57.615Z,72.87
2018-08-07T18:18:24.993Z,27.13
2018-08-07T18:20:52.338Z,25.20
2018-08-07T18:23:19.834Z,17.37
2018-08-07T18:25:47.157Z,25.50
2018-08-07T18:28:14.472Z,16.70
2018-08-07T18:30:41.825Z,10.93
2018-08-07T18:33:09.188Z,8.00
2018-08-07T18:35:36.555Z,10.93
2018-08-07T18:38:03.897Z,10.77
2018-08-07T18:40:31.262Z,6.67
2018-08-07T18:42:58.548Z,149.93
2018-08-07T18:45:25.893Z,100.27
2018-08-07T18:47:53.271Z,91.70
2018-08-07T18:50:21.829Z,43.33
2018-08-07T18:52:49.345Z,28.07
2018-08-07T18:55:16.764Z,9.30
2018-08-07T18:57:45.506Z,13.53
2018-08-07T19:00:14.880Z,6.97
2018-08-07T19:02:42.467Z,6.40
2018-08-07T19:05:11.568Z,6.20
2018-08-07T19:07:39.405Z,6.87
2018-08-07T19:10:07.229Z,6.53
2018-08-07T19:12:34.605Z,6.33
2018-08-07T19:15:02.061Z,11.33
2018-08-07T19:17:29.360Z,6.30
2018-08-07T19:19:56.669Z,7.97
2018-08-07T19:22:23.973Z,7.37
2018-08-07T19:24:51.317Z,6.83
2018-08-07T19:27:18.651Z,6.43
2018-08-07T19:29:46.032Z,6.77
2018-08-07T19:32:13.340Z,6.07
2018-08-07T19:34:40.861Z,7.33
2018-08-07T19:37:08.196Z,7.20
2018-08-07T19:39:35.487Z,6.83
2018-08-07T19:42:02.866Z,6.43
2018-08-07T19:44:30.152Z,7.23
2018-08-07T19:46:57.540Z,7.20
2018-08-07T19:49:24.841Z,7.57
2018-08-07T19:51:52.170Z,6.53
2018-08-07T19:54:19.588Z,8.40
2018-08-07T19:56:47.012Z,8.27
2018-08-07T19:59:14.321Z,6.17
2018-08-07T20:01:41.691Z,6.60
2018-08-07T20:04:09.004Z,7.23
2018-08-07T20:06:36.275Z,6.33
2018-08-07T20:09:06.457Z,10.10
2018-08-07T20:11:33.783Z,6.33
2018-08-07T20:14:01.049Z,6.90
2018-08-07T20:16:28.377Z,7.83
2018-08-07T20:18:55.662Z,6.70
2018-08-07T20:21:22.996Z,7.10
2018-08-07T20:23:50.297Z,8.00
2018-08-07T20:26:17.584Z,7.37
2018-08-07T20:28:44.866Z,6.10
2018-08-07T20:31:12.209Z,6.17
2018-08-07T20:33:39.538Z,6.30
2018-08-07T20:36:51.041Z,6.43
2018-08-07T20:39:18.332Z,6.40
2018-08-07T20:41:45.668Z,6.93
2018-08-07T20:44:12.939Z,6.87
2018-08-07T20:46:40.460Z,7.50
2018-08-07T20:49:07.740Z,8.30
2018-08-07T20:51:35.136Z,9.33
2018-08-07T20:54:02.421Z,7.23
2018-08-07T20:56:29.801Z,7.47
2018-08-07T20:58:57.072Z,6.97
2018-08-07T21:01:24.428Z,6.80
2018-08-07T21:03:51.725Z,10.20
2018-08-07T21:06:19.019Z,9.33
2018-08-07T21:08:46.366Z,7.37
2018-08-07T21:11:13.705Z,6.23
2018-08-07T21:13:41.061Z,8.57
2018-08-07T21:16:08.415Z,6.50
2018-08-07T21:18:35.649Z,7.97
2018-08-07T21:21:02.941Z,6.53
2018-08-07T21:23:30.313Z,6.50
2018-08-07T21:25:57.622Z,7.37
2018-08-07T21:28:24.977Z,6.90
2018-08-07T21:30:52.337Z,7.10
2018-08-07T21:33:19.711Z,6.80
2018-08-07T21:35:47.051Z,7.07
2018-08-07T21:38:14.360Z,7.30
2018-08-07T21:40:41.799Z,7.60
2018-08-07T21:43:09.318Z,8.03
2018-08-07T21:45:36.591Z,7.87
2018-08-07T21:48:03.959Z,7.27
2018-08-07T21:50:31.255Z,6.90
2018-08-07T21:52:58.606Z,8.20
2018-08-07T21:55:25.954Z,6.97
2018-08-07T21:57:53.259Z,7.40
2018-08-07T22:00:30.033Z,7.57
2018-08-07T22:02:57.369Z,6.90
2018-08-07T22:05:24.641Z,7.77
2018-08-07T22:07:51.973Z,6.73
2018-08-07T22:10:20.416Z,7.27
2018-08-07T22:12:47.937Z,7.30
2018-08-07T22:15:16.290Z,7.93
2018-08-07T22:17:43.784Z,6.40
2018-08-07T22:20:11.747Z,7.20
2018-08-07T22:22:39.124Z,11.10
2018-08-07T22:25:07.068Z,8.77
2018-08-07T22:27:34.369Z,8.17
2018-08-07T22:30:01.905Z,9.20
2018-08-07T22:32:29.268Z,7.47
2018-08-07T22:34:56.585Z,9.10
2018-08-07T22:37:23.871Z,7.37
2018-08-07T22:39:51.148Z,7.43
2018-08-07T22:42:18.458Z,8.10
2018-08-07T22:44:45.778Z,8.07
2018-08-07T22:47:13.114Z,11.30
2018-08-07T22:49:40.537Z,8.67
2018-08-07T22:52:07.861Z,9.30
2018-08-07T22:54:35.297Z,7.13
2018-08-07T22:57:02.583Z,7.10
2018-08-07T22:59:29.883Z,8.90
2018-08-07T23:01:57.214Z,7.27
2018-08-07T23:04:24.513Z,10.53
2018-08-07T23:06:51.801Z,13.27
2018-08-07T23:09:19.102Z,7.87
2018-08-07T23:11:46.431Z,8.07
2018-08-07T23:14:13.717Z,7.93
2018-08-07T23:16:41.088Z,7.30
2018-08-07T23:19:08.393Z,13.00
2018-08-07T23:21:35.698Z,9.03
2018-08-07T23:24:03.036Z,11.20
2018-08-07T23:26:30.333Z,7.77
2018-08-07T23:28:57.642Z,8.97
2018-08-07T23:31:24.974Z,8.10
2018-08-07T23:33:52.286Z,8.00
2018-08-07T23:36:19.713Z,9.67
2018-08-07T23:38:46.993Z,7.17
2018-08-07T23:41:14.301Z,7.47
2018-08-07T23:43:41.669Z,8.10
2018-08-07T23:46:09.017Z,10.07
2018-08-07T23:48:36.285Z,11.40
2018-08-07T23:51:03.640Z,8.23
2018-08-07T23:53:30.929Z,7.27
2018-08-07T23:55:58.208Z,11.03
2018-08-07T23:58:25.564Z,9.53
